sensor_id;sensor_type;location;lat;lon;timestamp;temperature;humidity
24326;DHT22;12448;45.532;5.290;2023-07-29T00:01:14;25.10;76.70
24326;DHT22;12448;45.532;5.290;2023-07-29T00:03:40;25.00;76.90
24326;DHT22;12448;45.532;5.290;2023-07-29T00:06:06;25.10;77.00
24326;DHT22;12448;45.532;5.290;2023-07-29T00:08:32;25.10;77.00
24326;DHT22;12448;45.532;5.290;2023-07-29T00:10:57;25.10;76.90
24326;DHT22;12448;45.532;5.290;2023-07-29T00:13:23;25.20;76.80
24326;DHT22;12448;45.532;5.290;2023-07-29T00:15:48;25.20;76.60
24326;DHT22;12448;45.532;5.290;2023-07-29T00:18:14;25.10;76.60
24326;DHT22;12448;45.532;5.290;2023-07-29T00:20:40;25.10;76.80
24326;DHT22;12448;45.532;5.290;2023-07-29T00:23:05;25.10;76.80
24326;DHT22;12448;45.532;5.290;2023-07-29T00:25:31;25.20;76.70
24326;DHT22;12448;45.532;5.290;2023-07-29T00:27:56;25.20;76.60
24326;DHT22;12448;45.532;5.290;2023-07-29T00:30:22;25.30;76.50
24326;DHT22;12448;45.532;5.290;2023-07-29T00:32:48;25.30;76.30
24326;DHT22;12448;45.532;5.290;2023-07-29T00:35:13;25.30;76.10
24326;DHT22;12448;45.532;5.290;2023-07-29T00:37:39;25.30;75.90
24326;DHT22;12448;45.532;5.290;2023-07-29T00:40:13;25.30;75.70
24326;DHT22;12448;45.532;5.290;2023-07-29T00:42:39;25.30;75.50
24326;DHT22;12448;45.532;5.290;2023-07-29T00:45:06;25.30;76.10
24326;DHT22;12448;45.532;5.290;2023-07-29T00:47:33;25.40;75.20
24326;DHT22;12448;45.532;5.290;2023-07-29T00:49:59;25.40;75.20
24326;DHT22;12448;45.532;5.290;2023-07-29T00:52:24;25.30;75.00
24326;DHT22;12448;45.532;5.290;2023-07-29T00:54:50;25.40;75.00
24326;DHT22;12448;45.532;5.290;2023-07-29T00:57:16;25.30;74.90
24326;DHT22;12448;45.532;5.290;2023-07-29T00:59:43;25.40;75.10
24326;DHT22;12448;45.532;5.290;2023-07-29T01:02:09;25.30;75.40
24326;DHT22;12448;45.532;5.290;2023-07-29T01:04:37;25.30;75.50
24326;DHT22;12448;45.532;5.290;2023-07-29T01:07:14;25.30;75.60
24326;DHT22;12448;45.532;5.290;2023-07-29T01:10:03;25.30;75.50
24326;DHT22;12448;45.532;5.290;2023-07-29T01:18:07;25.10;75.30
24326;DHT22;12448;45.532;5.290;2023-07-29T01:20:38;25.10;75.10
24326;DHT22;12448;45.532;5.290;2023-07-29T01:23:04;25.10;75.00
24326;DHT22;12448;45.532;5.290;2023-07-29T01:25:30;25.10;75.10
24326;DHT22;12448;45.532;5.290;2023-07-29T01:27:55;25.10;74.80
24326;DHT22;12448;45.532;5.290;2023-07-29T01:30:33;25.10;74.80
24326;DHT22;12448;45.532;5.290;2023-07-29T01:33:17;25.10;74.70
24326;DHT22;12448;45.532;5.290;2023-07-29T01:36:03;25.00;74.60
24326;DHT22;12448;45.532;5.290;2023-07-29T01:38:35;25.00;74.60
24326;DHT22;12448;45.532;5.290;2023-07-29T01:41:02;24.90;74.60
24326;DHT22;12448;45.532;5.290;2023-07-29T01:43:29;24.90;74.60
24326;DHT22;12448;45.532;5.290;2023-07-29T01:45:55;24.90;74.60
24326;DHT22;12448;45.532;5.290;2023-07-29T01:48:21;24.90;74.50
24326;DHT22;12448;45.532;5.290;2023-07-29T01:50:47;24.90;74.40
24326;DHT22;12448;45.532;5.290;2023-07-29T01:53:12;24.90;74.10
24326;DHT22;12448;45.532;5.290;2023-07-29T01:55:39;24.80;73.90
24326;DHT22;12448;45.532;5.290;2023-07-29T01:58:05;24.80;73.80
24326;DHT22;12448;45.532;5.290;2023-07-29T02:00:30;24.70;73.60
24326;DHT22;12448;45.532;5.290;2023-07-29T02:02:56;24.70;73.50
24326;DHT22;12448;45.532;5.290;2023-07-29T02:05:21;24.70;73.40
24326;DHT22;12448;45.532;5.290;2023-07-29T02:07:47;24.70;73.20
24326;DHT22;12448;45.532;5.290;2023-07-29T02:10:13;24.70;73.10
24326;DHT22;12448;45.532;5.290;2023-07-29T02:12:38;24.70;73.00
24326;DHT22;12448;45.532;5.290;2023-07-29T02:15:04;24.70;72.80
24326;DHT22;12448;45.532;5.290;2023-07-29T02:17:31;24.70;72.70
24326;DHT22;12448;45.532;5.290;2023-07-29T02:19:56;24.70;72.50
24326;DHT22;12448;45.532;5.290;2023-07-29T02:22:22;24.60;72.20
24326;DHT22;12448;45.532;5.290;2023-07-29T02:24:47;24.60;72.20
24326;DHT22;12448;45.532;5.290;2023-07-29T02:27:13;24.60;72.10
24326;DHT22;12448;45.532;5.290;2023-07-29T02:29:39;24.60;71.90
24326;DHT22;12448;45.532;5.290;2023-07-29T02:32:04;24.50;71.70
24326;DHT22;12448;45.532;5.290;2023-07-29T02:34:30;24.50;71.70
24326;DHT22;12448;45.532;5.290;2023-07-29T02:36:56;24.50;71.70
24326;DHT22;12448;45.532;5.290;2023-07-29T02:39:21;24.50;71.70
24326;DHT22;12448;45.532;5.290;2023-07-29T02:41:48;24.50;71.60
24326;DHT22;12448;45.532;5.290;2023-07-29T02:44:14;24.50;71.60
24326;DHT22;12448;45.532;5.290;2023-07-29T02:46:40;24.40;71.60
24326;DHT22;12448;45.532;5.290;2023-07-29T02:49:06;24.40;71.60
24326;DHT22;12448;45.532;5.290;2023-07-29T02:51:31;24.40;71.70
24326;DHT22;12448;45.532;5.290;2023-07-29T02:53:57;24.40;71.60
24326;DHT22;12448;45.532;5.290;2023-07-29T02:56:23;24.40;72.30
24326;DHT22;12448;45.532;5.290;2023-07-29T02:58:49;24.40;71.20
24326;DHT22;12448;45.532;5.290;2023-07-29T03:01:16;24.30;71.00
24326;DHT22;12448;45.532;5.290;2023-07-29T03:03:42;24.30;70.90
24326;DHT22;12448;45.532;5.290;2023-07-29T03:06:09;24.30;70.70
24326;DHT22;12448;45.532;5.290;2023-07-29T03:08:35;24.30;70.50
24326;DHT22;12448;45.532;5.290;2023-07-29T03:11:06;24.30;70.50
24326;DHT22;12448;45.532;5.290;2023-07-29T03:13:33;24.30;70.40
24326;DHT22;12448;45.532;5.290;2023-07-29T03:18:34;24.30;69.90
24326;DHT22;12448;45.532;5.290;2023-07-29T03:21:00;24.30;69.80
24326;DHT22;12448;45.532;5.290;2023-07-29T03:23:27;24.30;69.70
24326;DHT22;12448;45.532;5.290;2023-07-29T03:25:55;24.30;69.40
24326;DHT22;12448;45.532;5.290;2023-07-29T03:28:24;24.30;69.20
24326;DHT22;12448;45.532;5.290;2023-07-29T03:30:50;24.30;69.20
24326;DHT22;12448;45.532;5.290;2023-07-29T03:33:16;24.30;69.20
24326;DHT22;12448;45.532;5.290;2023-07-29T03:35:41;24.30;69.30
24326;DHT22;12448;45.532;5.290;2023-07-29T03:38:10;24.20;69.10
24326;DHT22;12448;45.532;5.290;2023-07-29T03:40:37;24.30;69.10
24326;DHT22;12448;45.532;5.290;2023-07-29T03:43:02;24.20;69.80
24326;DHT22;12448;45.532;5.290;2023-07-29T03:45:28;24.20;69.00
24326;DHT22;12448;45.532;5.290;2023-07-29T03:47:53;24.20;68.90
24326;DHT22;12448;45.532;5.290;2023-07-29T03:50:19;24.20;69.00
24326;DHT22;12448;45.532;5.290;2023-07-29T03:52:45;24.20;69.00
24326;DHT22;12448;45.532;5.290;2023-07-29T03:55:10;24.20;68.80
24326;DHT22;12448;45.532;5.290;2023-07-29T03:57:36;24.20;68.80
24326;DHT22;12448;45.532;5.290;2023-07-29T04:00:02;24.20;68.80
24326;DHT22;12448;45.532;5.290;2023-07-29T04:02:28;24.10;68.80
24326;DHT22;12448;45.532;5.290;2023-07-29T04:04:54;24.10;69.00
24326;DHT22;12448;45.532;5.290;2023-07-29T04:07:19;24.10;69.10
24326;DHT22;12448;45.532;5.290;2023-07-29T04:09:45;24.10;69.30
24326;DHT22;12448;45.532;5.290;2023-07-29T04:12:11;24.10;69.50
24326;DHT22;12448;45.532;5.290;2023-07-29T04:14:36;24.10;69.60
24326;DHT22;12448;45.532;5.290;2023-07-29T04:17:02;24.10;69.70
24326;DHT22;12448;45.532;5.290;2023-07-29T04:19:28;24.10;70.50
24326;DHT22;12448;45.532;5.290;2023-07-29T04:21:53;24.10;69.70
24326;DHT22;12448;45.532;5.290;2023-07-29T04:24:19;24.10;69.70
24326;DHT22;12448;45.532;5.290;2023-07-29T04:26:45;24.10;69.60
24326;DHT22;12448;45.532;5.290;2023-07-29T04:29:11;24.10;69.50
24326;DHT22;12448;45.532;5.290;2023-07-29T04:31:37;24.10;69.50
24326;DHT22;12448;45.532;5.290;2023-07-29T04:34:04;24.10;69.50
24326;DHT22;12448;45.532;5.290;2023-07-29T04:36:30;24.10;69.70
24326;DHT22;12448;45.532;5.290;2023-07-29T04:38:56;24.10;69.90
24326;DHT22;12448;45.532;5.290;2023-07-29T04:41:21;24.10;70.00
24326;DHT22;12448;45.532;5.290;2023-07-29T04:43:47;24.10;70.10
24326;DHT22;12448;45.532;5.290;2023-07-29T04:46:15;24.10;70.30
24326;DHT22;12448;45.532;5.290;2023-07-29T04:48:40;24.10;70.40
24326;DHT22;12448;45.532;5.290;2023-07-29T04:51:06;24.10;70.60
24326;DHT22;12448;45.532;5.290;2023-07-29T04:53:32;24.10;70.60
24326;DHT22;12448;45.532;5.290;2023-07-29T04:55:57;24.10;70.50
24326;DHT22;12448;45.532;5.290;2023-07-29T04:58:23;24.10;70.50
24326;DHT22;12448;45.532;5.290;2023-07-29T05:00:48;24.10;70.50
24326;DHT22;12448;45.532;5.290;2023-07-29T05:03:14;24.10;70.90
24326;DHT22;12448;45.532;5.290;2023-07-29T05:05:40;24.10;71.00
24326;DHT22;12448;45.532;5.290;2023-07-29T05:08:05;24.10;71.10
24326;DHT22;12448;45.532;5.290;2023-07-29T05:10:31;24.10;71.00
24326;DHT22;12448;45.532;5.290;2023-07-29T05:12:56;24.10;70.90
24326;DHT22;12448;45.532;5.290;2023-07-29T05:15:22;24.20;70.80
24326;DHT22;12448;45.532;5.290;2023-07-29T05:17:48;24.10;70.90
24326;DHT22;12448;45.532;5.290;2023-07-29T05:20:13;24.20;71.20
24326;DHT22;12448;45.532;5.290;2023-07-29T05:22:39;24.10;71.10
24326;DHT22;12448;45.532;5.290;2023-07-29T05:25:05;24.20;71.20
24326;DHT22;12448;45.532;5.290;2023-07-29T05:27:31;24.20;71.10
24326;DHT22;12448;45.532;5.290;2023-07-29T05:29:56;24.20;71.30
24326;DHT22;12448;45.532;5.290;2023-07-29T05:32:22;24.20;71.10
24326;DHT22;12448;45.532;5.290;2023-07-29T05:34:48;24.20;71.10
24326;DHT22;12448;45.532;5.290;2023-07-29T05:37:13;24.20;71.20
24326;DHT22;12448;45.532;5.290;2023-07-29T05:39:39;24.10;71.20
24326;DHT22;12448;45.532;5.290;2023-07-29T05:42:05;24.10;71.60
24326;DHT22;12448;45.532;5.290;2023-07-29T05:44:31;24.00;71.90
24326;DHT22;12448;45.532;5.290;2023-07-29T05:46:56;24.00;72.40
24326;DHT22;12448;45.532;5.290;2023-07-29T05:49:22;24.10;72.40
24326;DHT22;12448;45.532;5.290;2023-07-29T05:51:48;24.10;72.20
24326;DHT22;12448;45.532;5.290;2023-07-29T05:54:14;24.20;72.10
24326;DHT22;12448;45.532;5.290;2023-07-29T05:56:39;24.20;72.00
24326;DHT22;12448;45.532;5.290;2023-07-29T05:59:05;24.30;72.00
24326;DHT22;12448;45.532;5.290;2023-07-29T06:01:31;24.40;72.00
24326;DHT22;12448;45.532;5.290;2023-07-29T06:03:56;24.40;71.90
24326;DHT22;12448;45.532;5.290;2023-07-29T06:06:22;24.50;72.00
24326;DHT22;12448;45.532;5.290;2023-07-29T06:08:49;24.60;71.90
24326;DHT22;12448;45.532;5.290;2023-07-29T06:11:15;24.60;72.40
24326;DHT22;12448;45.532;5.290;2023-07-29T06:13:41;24.60;72.00
24326;DHT22;12448;45.532;5.290;2023-07-29T06:16:06;24.70;72.00
24326;DHT22;12448;45.532;5.290;2023-07-29T06:18:32;24.70;72.10
24326;DHT22;12448;45.532;5.290;2023-07-29T06:20:57;24.70;72.00
24326;DHT22;12448;45.532;5.290;2023-07-29T06:23:23;24.80;72.00
24326;DHT22;12448;45.532;5.290;2023-07-29T06:25:49;24.80;72.00
24326;DHT22;12448;45.532;5.290;2023-07-29T06:28:14;24.90;72.60
24326;DHT22;12448;45.532;5.290;2023-07-29T06:30:40;24.90;71.80
24326;DHT22;12448;45.532;5.290;2023-07-29T06:33:06;24.90;71.90
24326;DHT22;12448;45.532;5.290;2023-07-29T06:35:31;24.90;72.00
24326;DHT22;12448;45.532;5.290;2023-07-29T06:37:57;24.90;71.90
24326;DHT22;12448;45.532;5.290;2023-07-29T06:40:23;24.90;72.00
24326;DHT22;12448;45.532;5.290;2023-07-29T06:42:48;24.90;72.00
24326;DHT22;12448;45.532;5.290;2023-07-29T06:45:14;24.90;71.80
24326;DHT22;12448;45.532;5.290;2023-07-29T06:47:41;24.90;71.90
24326;DHT22;12448;45.532;5.290;2023-07-29T06:50:06;24.90;72.00
24326;DHT22;12448;45.532;5.290;2023-07-29T06:52:32;24.90;72.00
24326;DHT22;12448;45.532;5.290;2023-07-29T06:54:58;24.90;72.00
24326;DHT22;12448;45.532;5.290;2023-07-29T06:57:24;24.90;72.00
24326;DHT22;12448;45.532;5.290;2023-07-29T06:59:49;24.90;72.00
24326;DHT22;12448;45.532;5.290;2023-07-29T07:02:15;24.80;72.10
24326;DHT22;12448;45.532;5.290;2023-07-29T07:04:40;24.80;72.20
24326;DHT22;12448;45.532;5.290;2023-07-29T07:07:06;24.80;72.30
24326;DHT22;12448;45.532;5.290;2023-07-29T07:09:32;24.80;72.30
24326;DHT22;12448;45.532;5.290;2023-07-29T07:11:57;24.80;72.10
24326;DHT22;12448;45.532;5.290;2023-07-29T07:14:23;24.80;72.90
24326;DHT22;12448;45.532;5.290;2023-07-29T07:16:48;24.80;72.10
24326;DHT22;12448;45.532;5.290;2023-07-29T07:19:14;24.80;72.40
24326;DHT22;12448;45.532;5.290;2023-07-29T07:21:40;24.80;72.50
24326;DHT22;12448;45.532;5.290;2023-07-29T07:24:05;24.80;72.40
24326;DHT22;12448;45.532;5.290;2023-07-29T07:26:31;24.80;72.50
24326;DHT22;12448;45.532;5.290;2023-07-29T07:28:56;24.90;72.50
24326;DHT22;12448;45.532;5.290;2023-07-29T07:31:22;24.90;72.40
24326;DHT22;12448;45.532;5.290;2023-07-29T07:33:48;25.00;72.30
24326;DHT22;12448;45.532;5.290;2023-07-29T07:36:13;25.00;72.80
24326;DHT22;12448;45.532;5.290;2023-07-29T07:38:39;25.10;71.90
24326;DHT22;12448;45.532;5.290;2023-07-29T07:41:05;25.10;71.80
24326;DHT22;12448;45.532;5.290;2023-07-29T07:43:30;25.10;71.40
24326;DHT22;12448;45.532;5.290;2023-07-29T07:46:00;25.10;71.30
24326;DHT22;12448;45.532;5.290;2023-07-29T07:48:27;25.10;71.50
24326;DHT22;12448;45.532;5.290;2023-07-29T07:50:53;25.10;71.40
24326;DHT22;12448;45.532;5.290;2023-07-29T07:53:18;25.10;71.50
24326;DHT22;12448;45.532;5.290;2023-07-29T07:55:45;25.20;71.90
24326;DHT22;12448;45.532;5.290;2023-07-29T07:58:11;25.20;72.00
24326;DHT22;12448;45.532;5.290;2023-07-29T08:00:36;25.20;72.40
24326;DHT22;12448;45.532;5.290;2023-07-29T08:03:02;25.30;72.40
24326;DHT22;12448;45.532;5.290;2023-07-29T08:05:27;25.30;72.40
24326;DHT22;12448;45.532;5.290;2023-07-29T08:07:53;25.30;72.40
24326;DHT22;12448;45.532;5.290;2023-07-29T08:10:19;25.40;72.40
24326;DHT22;12448;45.532;5.290;2023-07-29T08:12:44;25.40;72.50
24326;DHT22;12448;45.532;5.290;2023-07-29T08:15:10;25.50;72.30
24326;DHT22;12448;45.532;5.290;2023-07-29T08:17:35;25.50;72.90
24326;DHT22;12448;45.532;5.290;2023-07-29T08:20:01;25.50;72.10
24326;DHT22;12448;45.532;5.290;2023-07-29T08:22:27;25.50;71.70
24326;DHT22;12448;45.532;5.290;2023-07-29T08:24:52;25.60;71.60
24326;DHT22;12448;45.532;5.290;2023-07-29T08:27:18;25.60;71.70
24326;DHT22;12448;45.532;5.290;2023-07-29T08:29:43;25.60;71.70
24326;DHT22;12448;45.532;5.290;2023-07-29T08:32:09;25.70;71.80
24326;DHT22;12448;45.532;5.290;2023-07-29T08:34:34;25.70;71.50
24326;DHT22;12448;45.532;5.290;2023-07-29T08:37:01;25.70;71.10
24326;DHT22;12448;45.532;5.290;2023-07-29T08:39:27;25.80;70.90
24326;DHT22;12448;45.532;5.290;2023-07-29T08:41:57;25.80;70.50
24326;DHT22;12448;45.532;5.290;2023-07-29T08:44:31;25.70;70.20
24326;DHT22;12448;45.532;5.290;2023-07-29T08:47:00;25.80;70.10
24326;DHT22;12448;45.532;5.290;2023-07-29T08:49:27;25.70;70.20
24326;DHT22;12448;45.532;5.290;2023-07-29T08:51:54;25.70;70.70
24326;DHT22;12448;45.532;5.290;2023-07-29T08:54:22;25.70;70.50
24326;DHT22;12448;45.532;5.290;2023-07-29T08:56:48;25.70;70.60
24326;DHT22;12448;45.532;5.290;2023-07-29T08:59:14;25.60;71.20
24326;DHT22;12448;45.532;5.290;2023-07-29T09:01:42;25.60;71.70
24326;DHT22;12448;45.532;5.290;2023-07-29T09:04:08;25.60;71.80
24326;DHT22;12448;45.532;5.290;2023-07-29T09:06:35;25.60;71.90
24326;DHT22;12448;45.532;5.290;2023-07-29T09:09:02;25.60;72.30
24326;DHT22;12448;45.532;5.290;2023-07-29T09:11:28;25.60;72.50
24326;DHT22;12448;45.532;5.290;2023-07-29T09:13:54;25.60;72.80
24326;DHT22;12448;45.532;5.290;2023-07-29T09:16:22;25.70;73.30
24326;DHT22;12448;45.532;5.290;2023-07-29T09:18:49;25.70;73.40
24326;DHT22;12448;45.532;5.290;2023-07-29T09:21:23;25.60;72.90
24326;DHT22;12448;45.532;5.290;2023-07-29T09:23:50;25.50;72.90
24326;DHT22;12448;45.532;5.290;2023-07-29T09:26:25;25.40;73.40
24326;DHT22;12448;45.532;5.290;2023-07-29T09:28:55;25.40;73.70
24326;DHT22;12448;45.532;5.290;2023-07-29T09:31:25;25.30;74.30
24326;DHT22;12448;45.532;5.290;2023-07-29T09:34:01;25.30;74.70
24326;DHT22;12448;45.532;5.290;2023-07-29T09:36:30;25.30;74.70
24326;DHT22;12448;45.532;5.290;2023-07-29T09:38:57;25.20;74.10
24326;DHT22;12448;45.532;5.290;2023-07-29T09:41:24;25.20;74.30
24326;DHT22;12448;45.532;5.290;2023-07-29T09:43:59;25.10;75.90
24326;DHT22;12448;45.532;5.290;2023-07-29T09:46:25;25.10;75.90
24326;DHT22;12448;45.532;5.290;2023-07-29T09:48:56;25.10;76.20
24326;DHT22;12448;45.532;5.290;2023-07-29T09:51:22;25.10;76.40
24326;DHT22;12448;45.532;5.290;2023-07-29T09:53:49;25.00;76.40
24326;DHT22;12448;45.532;5.290;2023-07-29T09:56:16;24.90;76.70
24326;DHT22;12448;45.532;5.290;2023-07-29T09:58:44;24.90;77.10
24326;DHT22;12448;45.532;5.290;2023-07-29T10:01:11;24.90;78.00
24326;DHT22;12448;45.532;5.290;2023-07-29T10:03:37;25.00;78.40
24326;DHT22;12448;45.532;5.290;2023-07-29T10:06:04;25.10;78.70
24326;DHT22;12448;45.532;5.290;2023-07-29T10:08:31;25.20;78.40
24326;DHT22;12448;45.532;5.290;2023-07-29T10:11:01;25.30;77.70
24326;DHT22;12448;45.532;5.290;2023-07-29T10:13:27;25.40;77.30
24326;DHT22;12448;45.532;5.290;2023-07-29T10:15:56;25.50;77.10
24326;DHT22;12448;45.532;5.290;2023-07-29T10:18:23;25.50;76.70
24326;DHT22;12448;45.532;5.290;2023-07-29T10:20:52;25.50;76.90
24326;DHT22;12448;45.532;5.290;2023-07-29T10:23:22;25.50;76.70
24326;DHT22;12448;45.532;5.290;2023-07-29T10:26:03;25.60;77.70
24326;DHT22;12448;45.532;5.290;2023-07-29T10:28:32;25.70;76.10
24326;DHT22;12448;45.532;5.290;2023-07-29T10:30:58;25.60;74.00
24326;DHT22;12448;45.532;5.290;2023-07-29T10:33:25;25.70;75.00
24326;DHT22;12448;45.532;5.290;2023-07-29T10:35:53;25.70;75.10
24326;DHT22;12448;45.532;5.290;2023-07-29T10:38:21;25.80;75.10
24326;DHT22;12448;45.532;5.290;2023-07-29T10:40:54;25.70;74.20
24326;DHT22;12448;45.532;5.290;2023-07-29T10:43:28;25.50;73.80
24326;DHT22;12448;45.532;5.290;2023-07-29T10:45:57;25.30;74.70
24326;DHT22;12448;45.532;5.290;2023-07-29T10:54:02;24.90;74.70
24326;DHT22;12448;45.532;5.290;2023-07-29T10:56:31;24.80;75.50
24326;DHT22;12448;45.532;5.290;2023-07-29T10:58:58;24.70;76.30
24326;DHT22;12448;45.532;5.290;2023-07-29T11:01:30;24.70;76.80
24326;DHT22;12448;45.532;5.290;2023-07-29T11:12:39;25.00;77.30
24326;DHT22;12448;45.532;5.290;2023-07-29T11:15:19;25.10;77.20
24326;DHT22;12448;45.532;5.290;2023-07-29T11:17:47;25.10;76.70
24326;DHT22;12448;45.532;5.290;2023-07-29T11:20:15;25.10;76.40
24326;DHT22;12448;45.532;5.290;2023-07-29T11:22:41;25.10;75.90
24326;DHT22;12448;45.532;5.290;2023-07-29T11:25:09;25.10;75.90
24326;DHT22;12448;45.532;5.290;2023-07-29T11:27:35;25.20;75.60
24326;DHT22;12448;45.532;5.290;2023-07-29T11:30:05;25.10;75.40
24326;DHT22;12448;45.532;5.290;2023-07-29T11:32:32;25.10;75.30
24326;DHT22;12448;45.532;5.290;2023-07-29T11:35:08;25.10;75.50
24326;DHT22;12448;45.532;5.290;2023-07-29T11:37:36;25.20;75.40
24326;DHT22;12448;45.532;5.290;2023-07-29T11:40:02;25.20;75.50
24326;DHT22;12448;45.532;5.290;2023-07-29T11:42:28;25.20;75.50
24326;DHT22;12448;45.532;5.290;2023-07-29T11:44:57;25.10;75.50
24326;DHT22;12448;45.532;5.290;2023-07-29T11:47:23;25.10;75.70
24326;DHT22;12448;45.532;5.290;2023-07-29T11:49:49;25.10;75.80
24326;DHT22;12448;45.532;5.290;2023-07-29T11:52:15;25.10;76.10
24326;DHT22;12448;45.532;5.290;2023-07-29T11:54:45;25.10;76.90
24326;DHT22;12448;45.532;5.290;2023-07-29T11:57:12;24.90;77.80
24326;DHT22;12448;45.532;5.290;2023-07-29T11:59:39;24.70;79.80
24326;DHT22;12448;45.532;5.290;2023-07-29T12:02:10;24.60;79.60
24326;DHT22;12448;45.532;5.290;2023-07-29T12:04:37;24.60;80.20
24326;DHT22;12448;45.532;5.290;2023-07-29T12:07:03;24.70;80.70
24326;DHT22;12448;45.532;5.290;2023-07-29T12:09:29;24.70;79.60
24326;DHT22;12448;45.532;5.290;2023-07-29T12:11:56;24.80;79.30
24326;DHT22;12448;45.532;5.290;2023-07-29T12:14:21;24.90;78.90
24326;DHT22;12448;45.532;5.290;2023-07-29T12:16:51;24.90;78.50
24326;DHT22;12448;45.532;5.290;2023-07-29T12:19:18;25.10;78.30
24326;DHT22;12448;45.532;5.290;2023-07-29T12:21:44;25.10;78.10
24326;DHT22;12448;45.532;5.290;2023-07-29T12:24:12;25.20;78.00
24326;DHT22;12448;45.532;5.290;2023-07-29T12:26:41;25.10;77.70
24326;DHT22;12448;45.532;5.290;2023-07-29T12:29:26;25.10;78.10
24326;DHT22;12448;45.532;5.290;2023-07-29T12:32:00;25.00;78.90
24326;DHT22;12448;45.532;5.290;2023-07-29T12:34:28;25.10;79.30
24326;DHT22;12448;45.532;5.290;2023-07-29T12:36:55;25.00;79.70
24326;DHT22;12448;45.532;5.290;2023-07-29T12:39:29;25.10;79.80
24326;DHT22;12448;45.532;5.290;2023-07-29T12:41:56;25.00;80.00
24326;DHT22;12448;45.532;5.290;2023-07-29T12:44:32;24.90;80.60
24326;DHT22;12448;45.532;5.290;2023-07-29T12:47:02;24.90;81.10
24326;DHT22;12448;45.532;5.290;2023-07-29T12:49:29;24.90;81.60
24326;DHT22;12448;45.532;5.290;2023-07-29T12:51:58;25.10;81.80
24326;DHT22;12448;45.532;5.290;2023-07-29T12:54:24;25.30;81.10
24326;DHT22;12448;45.532;5.290;2023-07-29T12:56:50;25.70;80.00
24326;DHT22;12448;45.532;5.290;2023-07-29T12:59:15;26.00;78.50
24326;DHT22;12448;45.532;5.290;2023-07-29T13:01:41;26.20;76.10
24326;DHT22;12448;45.532;5.290;2023-07-29T13:04:09;26.40;74.80
24326;DHT22;12448;45.532;5.290;2023-07-29T13:06:34;26.40;73.50
24326;DHT22;12448;45.532;5.290;2023-07-29T13:09:00;26.60;73.20
24326;DHT22;12448;45.532;5.290;2023-07-29T13:11:26;26.60;72.40
24326;DHT22;12448;45.532;5.290;2023-07-29T13:13:51;26.60;72.00
24326;DHT22;12448;45.532;5.290;2023-07-29T13:16:17;26.60;72.00
24326;DHT22;12448;45.532;5.290;2023-07-29T13:18:43;26.50;72.10
24326;DHT22;12448;45.532;5.290;2023-07-29T13:21:09;26.40;71.60
24326;DHT22;12448;45.532;5.290;2023-07-29T13:23:35;26.30;71.60
24326;DHT22;12448;45.532;5.290;2023-07-29T13:26:01;26.30;72.30
24326;DHT22;12448;45.532;5.290;2023-07-29T13:28:26;26.30;72.90
24326;DHT22;12448;45.532;5.290;2023-07-29T13:30:52;26.30;73.20
24326;DHT22;12448;45.532;5.290;2023-07-29T13:33:18;26.30;73.50
24326;DHT22;12448;45.532;5.290;2023-07-29T13:35:43;26.40;72.80
24326;DHT22;12448;45.532;5.290;2023-07-29T13:38:09;26.60;72.30
24326;DHT22;12448;45.532;5.290;2023-07-29T13:40:36;26.70;72.20
24326;DHT22;12448;45.532;5.290;2023-07-29T13:43:02;26.90;71.80
24326;DHT22;12448;45.532;5.290;2023-07-29T13:45:27;27.00;71.50
24326;DHT22;12448;45.532;5.290;2023-07-29T13:47:53;27.10;71.20
24326;DHT22;12448;45.532;5.290;2023-07-29T13:50:18;27.20;70.70
24326;DHT22;12448;45.532;5.290;2023-07-29T13:52:44;27.20;70.00
24326;DHT22;12448;45.532;5.290;2023-07-29T13:55:10;27.30;69.80
24326;DHT22;12448;45.532;5.290;2023-07-29T13:57:37;27.40;70.40
24326;DHT22;12448;45.532;5.290;2023-07-29T14:00:04;27.50;70.80
24326;DHT22;12448;45.532;5.290;2023-07-29T14:02:31;27.50;69.80
24326;DHT22;12448;45.532;5.290;2023-07-29T14:04:57;27.60;70.60
24326;DHT22;12448;45.532;5.290;2023-07-29T14:07:22;27.40;70.20
24326;DHT22;12448;45.532;5.290;2023-07-29T14:09:48;27.60;70.20
24326;DHT22;12448;45.532;5.290;2023-07-29T14:12:14;27.60;70.30
24326;DHT22;12448;45.532;5.290;2023-07-29T14:14:41;27.60;68.30
24326;DHT22;12448;45.532;5.290;2023-07-29T14:17:07;27.60;68.20
24326;DHT22;12448;45.532;5.290;2023-07-29T14:19:38;27.60;67.40
24326;DHT22;12448;45.532;5.290;2023-07-29T14:22:05;27.60;67.10
24326;DHT22;12448;45.532;5.290;2023-07-29T14:24:30;27.70;67.30
24326;DHT22;12448;45.532;5.290;2023-07-29T14:26:56;27.80;67.30
24326;DHT22;12448;45.532;5.290;2023-07-29T14:29:22;27.80;67.30
24326;DHT22;12448;45.532;5.290;2023-07-29T14:31:48;27.90;66.20
24326;DHT22;12448;45.532;5.290;2023-07-29T14:34:13;28.00;66.00
24326;DHT22;12448;45.532;5.290;2023-07-29T14:36:41;28.00;65.30
24326;DHT22;12448;45.532;5.290;2023-07-29T14:39:07;28.10;65.30
24326;DHT22;12448;45.532;5.290;2023-07-29T14:41:33;28.10;65.50
24326;DHT22;12448;45.532;5.290;2023-07-29T14:43:58;28.00;65.10
24326;DHT22;12448;45.532;5.290;2023-07-29T14:46:24;27.80;64.80
24326;DHT22;12448;45.532;5.290;2023-07-29T14:48:50;27.70;64.90
24326;DHT22;12448;45.532;5.290;2023-07-29T14:51:16;27.50;65.10
24326;DHT22;12448;45.532;5.290;2023-07-29T14:53:41;27.40;65.10
24326;DHT22;12448;45.532;5.290;2023-07-29T14:56:08;27.30;65.30
24326;DHT22;12448;45.532;5.290;2023-07-29T14:58:34;27.30;64.90
24326;DHT22;12448;45.532;5.290;2023-07-29T15:01:00;27.20;64.70
24326;DHT22;12448;45.532;5.290;2023-07-29T15:03:26;27.10;64.80
24326;DHT22;12448;45.532;5.290;2023-07-29T15:05:53;26.90;64.00
24326;DHT22;12448;45.532;5.290;2023-07-29T15:08:19;26.70;65.00
24326;DHT22;12448;45.532;5.290;2023-07-29T15:10:47;26.50;65.50
24326;DHT22;12448;45.532;5.290;2023-07-29T15:13:14;26.30;65.30
24326;DHT22;12448;45.532;5.290;2023-07-29T15:15:43;26.20;66.60
24326;DHT22;12448;45.532;5.290;2023-07-29T15:18:09;26.10;68.60
24326;DHT22;12448;45.532;5.290;2023-07-29T15:20:35;26.10;69.20
24326;DHT22;12448;45.532;5.290;2023-07-29T15:23:04;26.20;70.00
24326;DHT22;12448;45.532;5.290;2023-07-29T15:25:30;26.30;70.30
24326;DHT22;12448;45.532;5.290;2023-07-29T15:27:55;26.50;70.30
24326;DHT22;12448;45.532;5.290;2023-07-29T15:30:21;26.60;70.30
24326;DHT22;12448;45.532;5.290;2023-07-29T15:32:47;26.60;70.00
24326;DHT22;12448;45.532;5.290;2023-07-29T15:35:12;26.60;69.80
24326;DHT22;12448;45.532;5.290;2023-07-29T15:37:38;26.60;69.90
24326;DHT22;12448;45.532;5.290;2023-07-29T15:40:05;26.50;70.30
24326;DHT22;12448;45.532;5.290;2023-07-29T15:42:32;26.50;71.40
24326;DHT22;12448;45.532;5.290;2023-07-29T15:44:58;26.40;70.70
24326;DHT22;12448;45.532;5.290;2023-07-29T15:47:24;26.40;71.10
24326;DHT22;12448;45.532;5.290;2023-07-29T15:49:50;26.30;71.70